createdAt,value
2023-05-08T00:00:21.077Z,82.82
2023-05-08T00:01:21.149Z,82.82
2023-05-08T00:02:21.356Z,82.92
2023-05-08T00:03:21.479Z,83.13
2023-05-08T00:04:21.544Z,83.13
2023-05-08T00:05:21.627Z,83.23
2023-05-08T00:06:21.673Z,83.33
2023-05-08T00:07:21.763Z,83.23
2023-05-08T00:08:21.829Z,83.33
2023-05-08T00:09:21.953Z,83.23
2023-05-08T00:10:21.991Z,83.54
2023-05-08T00:11:22.078Z,83.64
2023-05-08T00:12:22.172Z,83.75
2023-05-08T00:13:22.367Z,83.89
2023-05-08T00:14:22.337Z,83.78
2023-05-08T00:15:22.402Z,83.89
2023-05-08T00:16:22.538Z,83.89
2023-05-08T00:17:22.626Z,83.89
2023-05-08T00:18:22.692Z,83.89
2023-05-08T00:19:22.791Z,83.99
2023-05-08T00:20:22.868Z,84.09
2023-05-08T00:21:22.946Z,84.09
2023-05-08T00:22:23.040Z,84.09
2023-05-08T00:23:23.141Z,84.20
2023-05-08T00:24:23.260Z,84.30
2023-05-08T00:25:23.340Z,84.30
2023-05-08T00:26:23.416Z,84.40
2023-05-08T00:27:23.495Z,84.20
2023-05-08T00:28:23.602Z,84.09
2023-05-08T00:29:23.697Z,83.89
2023-05-08T00:30:23.781Z,83.99
2023-05-08T00:31:23.857Z,83.89
2023-05-08T00:32:24.025Z,84.09
2023-05-08T00:33:24.094Z,84.30
2023-05-08T00:34:24.187Z,84.20
2023-05-08T00:35:24.268Z,84.40
2023-05-08T00:36:24.353Z,84.50
2023-05-08T00:37:24.476Z,84.40
2023-05-08T00:38:24.537Z,84.50
2023-05-08T00:39:24.642Z,84.50
2023-05-08T00:40:24.772Z,84.61
2023-05-08T00:41:24.850Z,84.50
2023-05-08T00:42:24.938Z,84.50
2023-05-08T00:43:25.034Z,84.54
2023-05-08T00:44:25.119Z,84.71
2023-05-08T00:45:25.192Z,84.75
2023-05-08T00:46:25.316Z,84.61
2023-05-08T00:47:25.386Z,84.71
2023-05-08T00:48:25.489Z,84.75
2023-05-08T00:49:25.555Z,84.75
2023-05-08T00:50:25.654Z,84.85
2023-05-08T00:51:25.726Z,84.95
2023-05-08T00:52:25.830Z,85.06
2023-05-08T00:53:25.918Z,85.06
2023-05-08T00:54:26.009Z,85.26
2023-05-08T00:55:26.107Z,85.26
2023-05-08T00:56:26.183Z,85.47
2023-05-08T00:57:26.281Z,85.16
2023-05-08T00:58:26.368Z,85.06
2023-05-08T00:59:26.483Z,85.16
2023-05-08T01:00:26.587Z,85.16
2023-05-08T01:01:26.710Z,85.36
2023-05-08T01:02:26.848Z,85.47
2023-05-08T01:03:26.975Z,85.51
2023-05-08T01:04:27.054Z,85.71
2023-05-08T01:05:27.149Z,85.82
2023-05-08T01:06:27.262Z,85.61
2023-05-08T01:07:27.361Z,85.51
2023-05-08T01:08:27.456Z,85.51
2023-05-08T01:09:27.562Z,85.51
2023-05-08T01:10:27.644Z,85.41
2023-05-08T01:11:27.848Z,85.20
2023-05-08T01:12:27.937Z,85.20
2023-05-08T01:13:28.027Z,85.20
2023-05-08T01:14:28.114Z,85.20
2023-05-08T01:15:28.227Z,85.41
2023-05-08T01:16:28.497Z,85.30
2023-05-08T01:17:28.423Z,85.20
2023-05-08T01:18:28.530Z,85.30
2023-05-08T01:19:28.636Z,85.30
2023-05-08T01:20:28.721Z,85.51
2023-05-08T01:21:28.811Z,85.51
2023-05-08T01:22:28.912Z,85.30
2023-05-08T01:23:28.999Z,85.41
2023-05-08T01:24:29.106Z,85.51
2023-05-08T01:25:29.201Z,85.61
2023-05-08T01:26:29.297Z,85.51
2023-05-08T01:27:29.423Z,85.51
2023-05-08T01:28:29.510Z,85.41
2023-05-08T01:29:29.631Z,85.51
2023-05-08T01:30:29.759Z,85.75
2023-05-08T01:31:29.866Z,85.96
2023-05-08T01:32:30.046Z,86.06
2023-05-08T01:33:30.139Z,85.96
2023-05-08T01:34:30.240Z,86.06
2023-05-08T01:35:30.328Z,86.27
2023-05-08T01:36:30.435Z,86.47
2023-05-08T01:37:30.600Z,86.27
2023-05-08T01:38:30.663Z,86.06
2023-05-08T01:39:30.790Z,86.16
2023-05-08T01:40:30.873Z,85.96
2023-05-08T01:41:31.029Z,86.27
2023-05-08T01:42:31.104Z,86.16
2023-05-08T01:43:31.198Z,86.27
2023-05-08T01:44:31.304Z,86.37
2023-05-08T01:45:31.415Z,86.37
2023-05-08T01:46:32.540Z,86.47
2023-05-08T01:47:31.618Z,86.72
2023-05-08T01:48:31.728Z,86.82
2023-05-08T01:49:31.972Z,86.82
2023-05-08T01:50:31.887Z,86.72
2023-05-08T01:51:32.032Z,86.72
2023-05-08T01:52:32.122Z,86.93
2023-05-08T01:53:32.209Z,87.13
2023-05-08T01:54:32.343Z,87.13
2023-05-08T01:55:32.415Z,86.93
2023-05-08T01:56:32.523Z,86.82
2023-05-08T01:57:32.645Z,87.03
2023-05-08T01:58:32.740Z,87.13
2023-05-08T01:59:32.844Z,87.03
2023-05-08T02:00:32.985Z,87.03
2023-05-08T02:01:33.065Z,87.03
2023-05-08T02:02:33.233Z,87.03
2023-05-08T02:03:33.504Z,87.03
2023-05-08T02:04:33.498Z,87.24
2023-05-08T02:05:33.586Z,86.93
2023-05-08T02:06:33.715Z,87.03
2023-05-08T02:07:33.823Z,87.03
2023-05-08T02:08:33.909Z,86.93
2023-05-08T02:09:34.031Z,87.13
2023-05-08T02:10:34.122Z,87.24
2023-05-08T02:11:34.218Z,87.24
2023-05-08T02:12:34.339Z,87.44
2023-05-08T02:13:34.465Z,87.54
2023-05-08T02:14:34.579Z,87.34
2023-05-08T02:15:34.678Z,87.54
2023-05-08T02:16:34.845Z,87.69
2023-05-08T02:17:34.951Z,87.69
2023-05-08T02:18:35.008Z,87.59
2023-05-08T02:19:35.159Z,87.69
2023-05-08T02:20:35.260Z,87.69
2023-05-08T02:21:35.361Z,87.79
2023-05-08T02:22:35.493Z,87.79
2023-05-08T02:23:35.578Z,87.79
2023-05-08T02:24:35.684Z,87.90
2023-05-08T02:25:35.779Z,87.90
2023-05-08T02:26:35.866Z,87.79
2023-05-08T02:27:35.972Z,87.79
2023-05-08T02:28:36.108Z,87.79
2023-05-08T02:29:36.211Z,87.99
2023-05-08T02:30:36.318Z,87.79
2023-05-08T02:31:36.414Z,87.79
2023-05-08T02:32:36.502Z,87.59
2023-05-08T02:33:36.703Z,87.59
2023-05-08T02:34:38.071Z,87.59
2023-05-08T02:35:36.971Z,87.48
2023-05-08T02:36:37.075Z,87.59
2023-05-08T02:37:37.163Z,87.69
2023-05-08T02:38:37.262Z,87.48
2023-05-08T02:39:37.397Z,87.59
2023-05-08T02:40:37.497Z,87.48
2023-05-08T02:41:37.628Z,87.27
2023-05-08T02:42:37.731Z,87.17
2023-05-08T02:43:37.849Z,87.17
2023-05-08T02:44:37.965Z,87.07
2023-05-08T02:45:38.278Z,87.17
2023-05-08T02:46:38.271Z,87.07
2023-05-08T02:47:38.319Z,87.17
2023-05-08T02:48:38.372Z,87.32
2023-05-08T02:49:38.514Z,87.07
2023-05-08T02:50:38.645Z,87.07
2023-05-08T02:51:38.773Z,87.11
2023-05-08T02:52:38.915Z,87.11
2023-05-08T02:53:39.037Z,87.32
2023-05-08T02:54:39.209Z,87.32
2023-05-08T02:55:39.321Z,87.52
2023-05-08T02:56:39.441Z,87.63
2023-05-08T02:57:39.598Z,87.83
2023-05-08T02:58:39.671Z,87.63
2023-05-08T02:59:39.806Z,87.63
2023-05-08T03:00:39.898Z,87.93
2023-05-08T03:01:40.011Z,88.04
2023-05-08T03:02:40.216Z,88.14
2023-05-08T03:03:40.358Z,87.83
2023-05-08T03:04:40.402Z,88.04
2023-05-08T03:05:40.504Z,87.93
2023-05-08T03:06:40.592Z,87.83
2023-05-08T03:07:40.717Z,87.73
2023-05-08T03:08:40.818Z,87.73
2023-05-08T03:09:40.959Z,87.73
2023-05-08T03:10:41.076Z,87.63
2023-05-08T03:11:41.196Z,87.83
2023-05-08T03:12:42.785Z,87.93
2023-05-08T03:13:41.603Z,88.04
2023-05-08T03:14:41.596Z,87.83
2023-05-08T03:15:41.815Z,87.93
2023-05-08T03:16:41.789Z,88.24
2023-05-08T03:17:41.942Z,88.04
2023-05-08T03:18:42.036Z,88.24
2023-05-08T03:19:42.182Z,88.39
2023-05-08T03:20:42.313Z,88.59
2023-05-08T03:21:42.423Z,88.59
2023-05-08T03:22:42.540Z,88.80
2023-05-08T03:23:42.679Z,88.90
2023-05-08T03:24:42.797Z,88.90
2023-05-08T03:25:42.910Z,88.90
2023-05-08T03:26:43.006Z,89.01
2023-05-08T03:27:43.165Z,89.11
2023-05-08T03:28:43.286Z,89.42
2023-05-08T03:29:43.442Z,89.46
2023-05-08T03:30:43.585Z,89.62
2023-05-08T03:31:43.912Z,89.46
2023-05-08T03:32:43.906Z,89.67
2023-05-08T03:33:43.978Z,89.87
2023-05-08T03:34:44.134Z,89.77
2023-05-08T03:35:44.223Z,89.67
2023-05-08T03:36:44.356Z,89.67
2023-05-08T03:37:44.486Z,89.77
2023-05-08T03:38:44.586Z,89.87
2023-05-08T03:39:44.746Z,90.08
2023-05-08T03:40:44.892Z,90.08
2023-05-08T03:41:45.003Z,89.87
2023-05-08T03:42:45.181Z,89.98
2023-05-08T03:43:45.251Z,90.08
2023-05-08T03:44:45.404Z,90.08
2023-05-08T03:45:45.506Z,89.87
2023-05-08T03:46:45.643Z,90.08
2023-05-08T03:47:45.786Z,90.19
2023-05-08T03:48:45.886Z,90.08
2023-05-08T03:49:46.032Z,90.39
2023-05-08T03:50:46.146Z,90.39
2023-05-08T03:51:46.263Z,90.28
2023-05-08T03:52:46.416Z,90.28
2023-05-08T03:53:46.508Z,90.49
2023-05-08T03:54:46.623Z,90.39
2023-05-08T03:55:46.757Z,90.59
2023-05-08T03:56:46.863Z,90.39
2023-05-08T03:57:46.992Z,90.28
2023-05-08T03:58:47.102Z,90.19
2023-05-08T03:59:47.241Z,90.39
2023-05-08T04:00:47.357Z,90.39
2023-05-08T04:01:47.547Z,90.39
2023-05-08T04:02:47.769Z,90.39
2023-05-08T04:03:47.877Z,90.39
2023-05-08T04:04:47.960Z,90.49
2023-05-08T04:05:48.080Z,90.49
2023-05-08T04:06:50.514Z,90.39
2023-05-08T04:07:48.350Z,90.28
2023-05-08T04:08:48.456Z,90.19
2023-05-08T04:09:48.597Z,90.39
2023-05-08T04:10:48.704Z,90.39
2023-05-08T04:11:48.821Z,90.28
2023-05-08T04:12:48.970Z,90.39
2023-05-08T04:13:49.057Z,90.49
2023-05-08T04:14:49.186Z,90.49
2023-05-08T04:15:49.296Z,90.59
2023-05-08T04:16:49.465Z,90.59
2023-05-08T04:17:49.653Z,90.49
2023-05-08T04:18:49.652Z,90.28
2023-05-08T04:19:49.779Z,90.39
2023-05-08T04:20:50.858Z,90.28
2023-05-08T04:21:50.085Z,90.28
2023-05-08T04:22:50.214Z,90.19
2023-05-08T04:23:50.364Z,89.94
2023-05-08T04:24:50.515Z,90.04
2023-05-08T04:25:50.666Z,90.04
2023-05-08T04:26:50.799Z,89.83
2023-05-08T04:27:50.948Z,89.62
2023-05-08T04:28:51.077Z,89.73
2023-05-08T04:29:51.246Z,89.83
2023-05-08T04:30:51.373Z,89.42
2023-05-08T04:31:51.630Z,89.32
2023-05-08T04:32:51.662Z,89.07
2023-05-08T04:33:51.756Z,89.17
2023-05-08T04:34:51.909Z,89.07
2023-05-08T04:35:52.039Z,88.86
2023-05-08T04:36:52.163Z,88.86
2023-05-08T04:37:52.269Z,88.65
2023-05-08T04:38:52.395Z,88.56
2023-05-08T04:39:52.534Z,88.45
2023-05-08T04:40:52.687Z,88.04
2023-05-08T04:41:52.862Z,88.04
2023-05-08T04:42:53.067Z,87.99
2023-05-08T04:43:54.036Z,87.90
2023-05-08T04:44:53.280Z,87.48
2023-05-08T04:45:53.452Z,87.38
2023-05-08T04:46:53.517Z,87.27
2023-05-08T04:47:53.684Z,87.07
2023-05-08T04:48:53.755Z,86.72
2023-05-08T04:49:53.870Z,86.41
2023-05-08T04:50:54.027Z,86.21
2023-05-08T04:51:54.096Z,86.31
2023-05-08T04:52:54.304Z,85.86
2023-05-08T04:53:54.330Z,85.24
2023-05-08T04:54:54.458Z,85.03
2023-05-08T04:55:54.563Z,84.83
2023-05-08T04:56:54.674Z,84.62
2023-05-08T04:57:54.873Z,84.31
2023-05-08T04:58:54.907Z,84.11
2023-05-08T04:59:55.019Z,83.25
2023-05-08T05:00:55.123Z,83.14
2023-05-08T05:01:55.270Z,82.53
2023-05-08T05:02:55.392Z,82.63
2023-05-08T05:03:55.533Z,82.32
2023-05-08T05:04:55.680Z,82.01
2023-05-08T05:05:55.780Z,82.39
2023-05-08T05:06:55.952Z,81.97
2023-05-08T05:07:56.041Z,81.32
2023-05-08T05:08:56.153Z,80.80
2023-05-08T05:09:56.436Z,80.60
2023-05-08T05:10:56.411Z,80.29
2023-05-08T05:11:58.048Z,80.39
2023-05-08T05:12:56.708Z,80.39
2023-05-08T05:13:56.754Z,80.19
2023-05-08T05:14:56.914Z,79.88
2023-05-08T05:15:57.036Z,79.67
2023-05-08T05:16:57.068Z,79.67
2023-05-08T05:17:57.228Z,79.47
2023-05-08T05:18:57.282Z,79.77
2023-05-08T05:19:57.380Z,80.08
2023-05-08T05:20:57.485Z,79.05
2023-05-08T05:21:57.593Z,79.26
2023-05-08T05:22:57.740Z,78.96
2023-05-08T05:23:57.779Z,78.96
2023-05-08T05:24:57.897Z,78.81
2023-05-08T05:25:57.983Z,78.50
2023-05-08T05:26:58.090Z,78.92
2023-05-08T05:27:58.164Z,78.30
2023-05-08T05:28:58.249Z,78.30
2023-05-08T05:29:58.385Z,78.09
2023-05-08T05:30:58.535Z,77.89
2023-05-08T05:31:58.845Z,78.06
2023-05-08T05:32:58.762Z,78.36
2023-05-08T05:33:58.852Z,77.65
2023-05-08T05:34:58.940Z,78.06
2023-05-08T05:36:08.721Z,77.55
2023-05-08T05:37:01.836Z,77.85
2023-05-08T05:37:59.235Z,77.95
2023-05-08T05:38:59.332Z,77.30
2023-05-08T05:39:59.448Z,77.30
2023-05-08T05:40:59.530Z,76.68
2023-05-08T05:41:59.833Z,76.68
2023-05-08T05:42:59.800Z,76.58
2023-05-08T05:43:59.856Z,76.38
2023-05-08T05:44:59.951Z,76.38
2023-05-08T05:46:00.048Z,76.04
2023-05-08T05:47:00.275Z,75.45
2023-05-08T05:48:00.424Z,75.45
2023-05-08T05:49:00.383Z,75.93
2023-05-08T05:50:00.471Z,75.62
2023-05-08T05:51:00.558Z,74.70
2023-05-08T05:52:00.653Z,74.70
2023-05-08T05:53:00.745Z,74.19
2023-05-08T05:54:00.835Z,74.40
2023-05-08T05:55:00.954Z,74.60
2023-05-08T05:56:01.015Z,73.64
2023-05-08T05:57:01.131Z,73.50
2023-05-08T05:58:01.228Z,72.65
2023-05-08T05:59:01.327Z,71.36
2023-05-08T06:00:01.413Z,69.82
2023-05-08T06:01:01.490Z,67.41
2023-05-08T06:02:01.647Z,65.20
2023-05-08T06:03:01.870Z,64.32
2023-05-08T06:04:01.956Z,62.94
2023-05-08T06:05:01.910Z,61.43
2023-05-08T06:06:01.991Z,60.38
2023-05-08T06:07:02.045Z,59.50
2023-05-08T06:08:02.148Z,59.98
2023-05-08T06:09:02.156Z,59.60
2023-05-08T06:10:02.239Z,60.52
2023-05-08T06:11:02.281Z,59.93
2023-05-08T06:12:02.342Z,60.00
2023-05-08T06:13:02.463Z,59.30
2023-05-08T06:14:02.470Z,59.19
2023-05-08T06:15:02.541Z,59.12
2023-05-08T06:16:02.577Z,60.27
2023-05-08T06:17:02.750Z,59.83
2023-05-08T06:18:02.861Z,58.73
2023-05-08T06:19:02.858Z,57.92
2023-05-08T06:20:02.915Z,57.28
2023-05-08T06:21:02.970Z,56.85
2023-05-08T06:22:03.006Z,56.77
2023-05-08T06:23:03.141Z,56.70
2023-05-08T06:24:03.251Z,56.47
2023-05-08T06:25:03.339Z,56.34
2023-05-08T06:26:03.367Z,56.11
2023-05-08T06:27:03.465Z,54.66
2023-05-08T06:28:03.520Z,55.07
2023-05-08T06:29:03.529Z,55.73
2023-05-08T06:30:03.557Z,55.86
2023-05-08T06:31:03.683Z,55.93
2023-05-08T06:32:03.610Z,55.43
2023-05-08T06:33:03.765Z,55.22
2023-05-08T06:34:03.801Z,54.90
2023-05-08T06:35:03.867Z,54.28
2023-05-08T06:36:03.886Z,54.26
2023-05-08T06:37:03.906Z,53.55
2023-05-08T06:38:03.920Z,54.66
2023-05-08T06:39:03.947Z,52.89
2023-05-08T06:40:12.125Z,53.88
2023-05-08T06:41:04.992Z,53.72
2023-05-08T06:42:04.001Z,53.22
2023-05-08T06:43:04.123Z,53.12
2023-05-08T06:44:04.153Z,53.50
2023-05-08T06:45:04.223Z,52.23
2023-05-08T06:46:04.286Z,51.32
2023-05-08T06:47:04.253Z,52.03
2023-05-08T06:48:04.281Z,50.61
2023-05-08T06:49:04.282Z,50.29
2023-05-08T06:50:04.293Z,51.02
2023-05-08T06:51:04.310Z,50.89
2023-05-08T06:52:04.309Z,51.50
2023-05-08T06:53:04.321Z,49.73
2023-05-08T06:54:04.314Z,48.95
2023-05-08T06:55:04.338Z,49.25
2023-05-08T06:56:04.342Z,49.15
2023-05-08T06:57:04.380Z,49.43
2023-05-08T06:58:04.397Z,49.02
2023-05-08T06:59:08.443Z,49.30
2023-05-08T07:00:04.514Z,49.02
2023-05-08T07:01:04.497Z,49.48
2023-05-08T07:02:04.592Z,50.54
2023-05-08T07:03:04.603Z,50.74
2023-05-08T07:04:04.609Z,51.12
2023-05-08T07:05:04.696Z,50.26
2023-05-08T07:06:04.577Z,48.67
2023-05-08T07:07:04.670Z,49.66
2023-05-08T07:08:04.673Z,48.85
2023-05-08T07:09:04.680Z,49.40
2023-05-08T07:10:05.974Z,49.55
2023-05-08T07:11:04.705Z,51.42
2023-05-08T07:12:04.701Z,51.52
2023-05-08T07:13:04.841Z,49.95
2023-05-08T07:14:04.853Z,49.52
2023-05-08T07:15:14.179Z,49.02
2023-05-08T07:16:05.875Z,48.71
2023-05-08T07:17:04.852Z,47.92
2023-05-08T07:18:04.899Z,49.08
2023-05-08T07:19:04.909Z,49.67
2023-05-08T07:20:04.901Z,47.98
2023-05-08T07:21:04.904Z,46.89
2023-05-08T07:22:05.012Z,47.14
2023-05-08T07:23:04.992Z,47.62
2023-05-08T07:24:04.992Z,47.62
2023-05-08T07:25:05.004Z,47.47
2023-05-08T07:26:05.004Z,45.96
2023-05-08T07:27:04.990Z,46.81
2023-05-08T07:28:04.997Z,47.31
2023-05-08T07:29:04.993Z,47.42
2023-05-08T07:30:05.045Z,46.56
2023-05-08T07:31:05.092Z,46.18
2023-05-08T07:32:05.102Z,46.59
2023-05-08T07:33:05.110Z,46.08
2023-05-08T07:34:05.183Z,46.75
2023-05-08T07:35:05.196Z,46.86
2023-05-08T07:36:05.174Z,46.71
2023-05-08T07:37:05.167Z,47.02
2023-05-08T07:38:05.208Z,46.61
2023-05-08T07:39:05.201Z,46.79
2023-05-08T07:40:05.204Z,46.59
2023-05-08T07:41:05.231Z,46.36
2023-05-08T07:42:05.194Z,47.02
2023-05-08T07:43:05.218Z,47.70
2023-05-08T07:44:05.181Z,47.30
2023-05-08T07:45:05.187Z,47.19
2023-05-08T07:46:05.172Z,47.80
2023-05-08T07:47:05.267Z,47.17
2023-05-08T07:48:05.219Z,46.92
2023-05-08T07:49:05.182Z,46.67
2023-05-08T07:50:05.183Z,47.90
2023-05-08T07:51:05.183Z,47.15
2023-05-08T07:52:05.155Z,47.15
2023-05-08T07:53:05.152Z,46.60
2023-05-08T07:54:05.126Z,44.94
2023-05-08T07:55:05.132Z,44.86
2023-05-08T07:56:05.175Z,44.94
2023-05-08T07:57:05.163Z,44.88
2023-05-08T07:58:05.135Z,45.83
2023-05-08T07:59:05.131Z,46.46
2023-05-08T08:00:05.124Z,46.84
2023-05-08T08:01:05.106Z,45.75
2023-05-08T08:02:05.121Z,46.69
2023-05-08T08:03:05.167Z,47.22
2023-05-08T08:04:05.213Z,47.60
2023-05-08T08:05:05.167Z,46.16
2023-05-08T08:06:05.144Z,47.09
2023-05-08T08:07:05.133Z,46.97
2023-05-08T08:08:05.111Z,46.52
2023-05-08T08:09:05.089Z,45.20
2023-05-08T08:10:05.092Z,46.14
2023-05-08T08:11:05.131Z,45.61
2023-05-08T08:12:05.062Z,45.39
2023-05-08T08:13:05.097Z,45.23
2023-05-08T08:14:05.085Z,45.25
2023-05-08T08:15:05.072Z,46.71
2023-05-08T08:16:05.031Z,47.17
2023-05-08T08:17:05.050Z,45.89
2023-05-08T08:18:05.034Z,44.66
2023-05-08T08:19:04.973Z,44.58
2023-05-08T08:20:04.971Z,45.55
2023-05-08T08:21:04.947Z,46.48
2023-05-08T08:22:04.917Z,45.67
2023-05-08T08:23:04.881Z,45.73
2023-05-08T08:24:04.878Z,45.45
2023-05-08T08:25:04.807Z,45.55
2023-05-08T08:26:04.798Z,45.23
2023-05-08T08:27:04.820Z,45.23
2023-05-08T08:28:04.801Z,45.04
2023-05-08T08:29:04.785Z,45.65
2023-05-08T08:30:15.178Z,45.04
2023-05-08T08:31:05.729Z,44.56
2023-05-08T08:32:04.670Z,45.04
2023-05-08T08:33:04.645Z,44.64
2023-05-08T08:34:04.587Z,45.25
2023-05-08T08:35:04.566Z,43.79
2023-05-08T08:36:04.554Z,43.81
2023-05-08T08:37:05.806Z,43.38
2023-05-08T08:38:04.541Z,43.12
2023-05-08T08:39:04.527Z,43.95
2023-05-08T08:40:04.503Z,43.73
2023-05-08T08:41:04.464Z,43.30
2023-05-08T08:42:04.496Z,43.49
2023-05-08T08:43:04.459Z,42.54
2023-05-08T08:44:04.435Z,42.01
2023-05-08T08:45:04.435Z,42.66
2023-05-08T08:46:04.471Z,42.66
2023-05-08T08:47:04.409Z,42.64
2023-05-08T08:48:04.419Z,42.13
2023-05-08T08:49:04.369Z,42.23
2023-05-08T08:50:04.324Z,42.86
2023-05-08T08:51:04.311Z,41.77
2023-05-08T08:52:04.250Z,41.85
2023-05-08T08:53:04.199Z,41.64
2023-05-08T08:54:04.191Z,42.15
2023-05-08T08:55:04.137Z,42.15
2023-05-08T08:56:04.104Z,41.73
2023-05-08T08:57:04.068Z,41.41
2023-05-08T08:58:04.065Z,40.21
2023-05-08T08:59:04.015Z,41.14
2023-05-08T09:00:03.995Z,40.23
2023-05-08T09:01:04.020Z,40.45
2023-05-08T09:02:03.932Z,41.18
2023-05-08T09:03:04.035Z,41.46
2023-05-08T09:04:03.998Z,41.04
2023-05-08T09:05:03.871Z,41.02
2023-05-08T09:06:03.893Z,41.24
2023-05-08T09:07:03.807Z,41.78
2023-05-08T09:08:03.796Z,42.37
2023-05-08T09:10:03.709Z,41.99
2023-05-08T09:11:03.661Z,42.19
2023-05-08T09:12:03.613Z,42.92
2023-05-08T09:13:03.600Z,43.08
2023-05-08T09:14:03.579Z,42.68
2023-05-08T09:15:03.574Z,43.37
2023-05-08T09:16:03.516Z,42.78
2023-05-08T09:17:03.445Z,43.08
2023-05-08T09:18:03.524Z,43.00
2023-05-08T09:19:04.452Z,43.59
2023-05-08T09:20:03.282Z,43.34
2023-05-08T09:21:03.270Z,42.76
2023-05-08T09:22:03.220Z,42.52
2023-05-08T09:23:03.220Z,42.54
2023-05-08T09:24:03.171Z,42.64
2023-05-08T09:25:03.176Z,43.23
2023-05-08T09:26:03.161Z,41.99
2023-05-08T09:27:03.128Z,42.05
2023-05-08T09:28:03.041Z,41.63
2023-05-08T09:29:02.982Z,40.86
2023-05-08T09:30:02.967Z,41.47
2023-05-08T09:31:02.919Z,41.47
2023-05-08T09:32:02.903Z,41.87
2023-05-08T09:33:02.929Z,42.05
2023-05-08T09:34:02.775Z,41.75
2023-05-08T09:35:02.749Z,41.33
2023-05-08T09:36:02.681Z,41.20
2023-05-08T09:37:02.830Z,40.80
2023-05-08T09:38:02.548Z,40.69
2023-05-08T09:39:02.493Z,40.26
2023-05-08T09:40:02.433Z,39.68
2023-05-08T09:41:02.449Z,39.48
2023-05-08T09:42:02.428Z,39.19
2023-05-08T09:43:02.862Z,39.07
2023-05-08T09:44:02.373Z,39.37
2023-05-08T09:45:03.240Z,38.85
2023-05-08T09:46:02.511Z,37.83
2023-05-08T09:47:02.225Z,38.57
2023-05-08T09:48:02.293Z,40.30
2023-05-08T09:49:02.074Z,39.92
2023-05-08T09:50:02.042Z,40.60
2023-05-08T09:51:01.956Z,40.28
2023-05-08T09:52:01.914Z,39.58
2023-05-08T09:53:01.838Z,40.01
2023-05-08T09:54:01.765Z,40.64
2023-05-08T09:55:01.663Z,41.27
2023-05-08T09:56:01.629Z,40.25
2023-05-08T09:57:01.518Z,40.98
2023-05-08T09:58:01.518Z,40.98
2023-05-08T09:59:01.439Z,40.17
2023-05-08T10:00:01.364Z,39.65
2023-05-08T10:01:01.302Z,39.35
2023-05-08T10:02:01.221Z,39.33
2023-05-08T10:03:01.242Z,39.45
2023-05-08T10:04:01.146Z,39.35
2023-05-08T10:05:00.984Z,37.51
2023-05-08T10:06:00.908Z,37.71
2023-05-08T10:07:00.849Z,38.86
2023-05-08T10:08:00.772Z,39.37
2023-05-08T10:09:00.718Z,39.23
2023-05-08T10:10:00.687Z,38.89
2023-05-08T10:11:00.633Z,37.27
2023-05-08T10:12:00.565Z,37.88
2023-05-08T10:13:00.520Z,37.14
2023-05-08T10:14:00.492Z,36.96
2023-05-08T10:15:00.439Z,36.37
2023-05-08T10:16:00.357Z,36.79
2023-05-08T10:17:00.334Z,36.99
2023-05-08T10:18:00.317Z,36.39
2023-05-08T10:19:00.219Z,37.40
2023-05-08T10:20:00.164Z,36.89
2023-05-08T10:21:00.109Z,37.13
2023-05-08T10:22:00.035Z,36.74
2023-05-08T10:23:00.074Z,36.82
2023-05-08T10:23:59.932Z,36.91
2023-05-08T10:24:59.877Z,37.41
2023-05-08T10:25:59.813Z,37.31
2023-05-08T10:27:06.894Z,37.51
2023-05-08T10:28:00.670Z,36.98
2023-05-08T10:28:59.665Z,37.38
2023-05-08T10:29:59.573Z,36.35
2023-05-08T10:30:59.575Z,37.24
2023-05-08T10:31:59.526Z,36.80
2023-05-08T10:32:59.475Z,34.96
2023-05-08T10:33:59.391Z,34.96
2023-05-08T10:34:59.318Z,35.33
2023-05-08T10:35:59.270Z,36.07
2023-05-08T10:36:59.184Z,36.35
2023-05-08T10:37:59.105Z,35.55
2023-05-08T10:38:59.015Z,36.55
2023-05-08T10:39:58.944Z,36.04
2023-05-08T10:40:58.871Z,35.91
2023-05-08T10:41:58.820Z,36.02
2023-05-08T10:42:58.784Z,36.32
2023-05-08T10:44:00.582Z,37.61
2023-05-08T10:44:58.684Z,35.46
2023-05-08T10:45:58.625Z,35.36
2023-05-08T10:46:58.491Z,35.70
2023-05-08T10:47:58.491Z,35.57
2023-05-08T10:48:58.398Z,35.05
2023-05-08T10:49:58.321Z,35.14
2023-05-08T10:50:58.239Z,34.83
2023-05-08T10:51:58.190Z,35.26
2023-05-08T10:52:58.129Z,36.25
2023-05-08T10:53:58.046Z,35.95
2023-05-08T10:54:57.973Z,35.53
2023-05-08T10:55:57.948Z,35.57
2023-05-08T10:56:57.896Z,36.18
2023-05-08T10:57:57.824Z,35.21
2023-05-08T10:58:57.811Z,35.91
2023-05-08T10:59:57.698Z,35.51
2023-05-08T11:00:57.741Z,35.71
2023-05-08T11:01:57.645Z,36.02
2023-05-08T11:02:57.557Z,36.02
2023-05-08T11:03:57.737Z,36.02
2023-05-08T11:04:57.446Z,35.60
2023-05-08T11:05:57.373Z,35.80
2023-05-08T11:06:57.295Z,35.58
2023-05-08T11:07:57.261Z,35.50
2023-05-08T11:08:58.449Z,35.51
2023-05-08T11:09:57.184Z,35.61
2023-05-08T11:10:57.116Z,35.60
2023-05-08T11:11:57.052Z,35.88
2023-05-08T11:12:57.020Z,35.78
2023-05-08T11:13:56.934Z,35.06
2023-05-08T11:14:56.877Z,35.35
2023-05-08T11:15:56.933Z,35.91
2023-05-08T11:16:56.821Z,34.08
2023-05-08T11:17:56.885Z,32.77
2023-05-08T11:18:56.673Z,33.71
2023-05-08T11:19:56.639Z,34.73
2023-05-08T11:20:56.578Z,34.49
2023-05-08T11:21:56.558Z,34.69
2023-05-08T11:22:56.497Z,34.49
2023-05-08T11:23:56.460Z,33.58
2023-05-08T11:24:56.396Z,33.17
2023-05-08T11:25:56.326Z,34.02
2023-05-08T11:26:56.257Z,34.76
2023-05-08T11:27:56.189Z,35.58
2023-05-08T11:28:56.136Z,35.06
2023-05-08T11:29:56.088Z,34.74
2023-05-08T11:30:56.050Z,34.63
2023-05-08T11:31:56.089Z,34.61
2023-05-08T11:32:56.142Z,34.21
2023-05-08T11:33:56.000Z,33.89
2023-05-08T11:34:55.938Z,34.69
2023-05-08T11:35:55.991Z,34.22
2023-05-08T11:36:55.882Z,35.18
2023-05-08T11:37:55.849Z,35.43
2023-05-08T11:38:56.386Z,34.19
2023-05-08T11:39:55.775Z,34.16
2023-05-08T11:40:55.722Z,32.64
2023-05-08T11:41:55.672Z,32.34
2023-05-08T11:42:55.616Z,32.61
2023-05-08T11:43:55.570Z,31.64
2023-05-08T11:44:55.521Z,32.06
2023-05-08T11:45:55.467Z,32.97
2023-05-08T11:46:55.453Z,32.97
2023-05-08T11:47:55.430Z,33.16
2023-05-08T11:48:55.383Z,32.74
2023-05-08T11:49:55.349Z,31.74
2023-05-08T11:50:55.295Z,31.74
2023-05-08T11:51:55.270Z,32.32
2023-05-08T11:52:55.212Z,31.74
2023-05-08T11:53:55.148Z,32.32
2023-05-08T11:54:55.103Z,31.97
2023-05-08T11:55:55.080Z,32.79
2023-05-08T11:56:55.050Z,32.57
2023-05-08T11:57:54.979Z,33.43
2023-05-08T11:58:54.923Z,31.78
2023-05-08T11:59:54.888Z,32.31
2023-05-08T12:00:54.900Z,32.38
2023-05-08T12:02:54.863Z,32.46
2023-05-08T12:03:55.058Z,31.57
2023-05-08T12:04:54.809Z,31.70
2023-05-08T12:05:54.713Z,32.43
2023-05-08T12:06:54.648Z,33.06
2023-05-08T12:07:54.597Z,33.36
2023-05-08T12:08:54.547Z,32.97
2023-05-08T12:09:54.499Z,32.96
2023-05-08T12:10:54.462Z,33.12
2023-05-08T12:11:54.424Z,32.53
2023-05-08T12:12:54.365Z,32.40
2023-05-08T12:13:54.310Z,32.36
2023-05-08T12:14:54.285Z,31.95
2023-05-08T12:15:54.224Z,31.21
2023-05-08T12:16:54.221Z,30.54
2023-05-08T12:17:54.142Z,32.18
2023-05-08T12:18:54.070Z,32.09
2023-05-08T12:19:54.016Z,31.88
2023-05-08T12:20:53.966Z,31.79
2023-05-08T12:21:53.922Z,32.21
2023-05-08T12:22:53.887Z,33.20
2023-05-08T12:23:53.835Z,31.62
2023-05-08T12:24:53.793Z,31.37
2023-05-08T12:25:55.110Z,30.44
2023-05-08T12:26:53.691Z,30.88
2023-05-08T12:27:53.660Z,31.12
2023-05-08T12:28:53.637Z,31.62
2023-05-08T12:29:53.601Z,31.90
2023-05-08T12:30:53.562Z,31.10
2023-05-08T12:31:53.491Z,31.40
2023-05-08T12:32:53.580Z,31.71
2023-05-08T12:33:53.426Z,32.01
2023-05-08T12:34:53.402Z,31.91
2023-05-08T12:35:53.357Z,31.79
2023-05-08T12:36:53.302Z,31.20
2023-05-08T12:37:53.267Z,31.21
2023-05-08T12:38:53.219Z,31.91
2023-05-08T12:39:53.179Z,32.40
2023-05-08T12:40:53.179Z,31.68
2023-05-08T12:41:53.087Z,32.25
2023-05-08T12:42:53.055Z,31.62
2023-05-08T12:43:53.017Z,31.02
2023-05-08T12:44:52.977Z,30.71
2023-05-08T12:45:52.925Z,30.68
2023-05-08T12:46:52.977Z,29.43
2023-05-08T12:47:52.840Z,30.54
2023-05-08T12:48:52.784Z,31.43
2023-05-08T12:49:52.784Z,29.72
2023-05-08T12:50:52.689Z,29.91
2023-05-08T12:51:52.640Z,30.74
2023-05-08T12:52:52.618Z,31.24
2023-05-08T12:53:52.556Z,30.36
2023-05-08T12:54:52.523Z,30.45